createdAt,value
2022-07-29T00:00:58.231Z,2.97
2022-07-29T00:04:01.593Z,2.93
2022-07-29T00:07:05.792Z,2.65
2022-07-29T00:10:09.235Z,2.70
2022-07-29T00:13:12.609Z,2.70
2022-07-29T00:16:16.051Z,2.70
2022-07-29T00:19:19.507Z,2.60
2022-07-29T00:22:22.825Z,2.80
2022-07-29T00:25:26.137Z,2.60
2022-07-29T00:28:29.326Z,2.95
2022-07-29T00:31:32.631Z,2.92
2022-07-29T00:34:54.207Z,2.70
2022-07-29T00:37:57.400Z,3.15
2022-07-29T00:41:00.709Z,2.67
2022-07-29T00:44:04.009Z,3.10
2022-07-29T00:47:07.972Z,2.90
2022-07-29T00:50:12.902Z,3.17
2022-07-29T00:53:16.664Z,2.90
2022-07-29T00:56:20.311Z,2.75
2022-07-29T00:59:23.472Z,3.45
2022-07-29T01:02:26.922Z,3.15
2022-07-29T01:05:51.092Z,3.03
2022-07-29T01:08:54.613Z,4.10
2022-07-29T01:11:58.245Z,4.60
2022-07-29T01:15:03.985Z,4.00
2022-07-29T01:18:13.858Z,4.85
2022-07-29T01:21:51.092Z,4.00
2022-07-29T01:25:11.383Z,3.72
2022-07-29T01:28:52.920Z,4.20
2022-07-29T01:32:02.210Z,4.65
2022-07-29T01:35:42.779Z,4.60
2022-07-29T01:38:51.103Z,4.03
2022-07-29T01:42:20.411Z,3.92
2022-07-29T01:45:33.067Z,4.80
2022-07-29T01:48:40.338Z,4.90
2022-07-29T01:51:49.097Z,4.10
2022-07-29T01:54:59.253Z,4.00
2022-07-29T01:58:05.490Z,4.43
2022-07-29T02:01:11.323Z,4.60
2022-07-29T02:04:29.316Z,4.30
2022-07-29T02:07:34.749Z,4.13
2022-07-29T02:10:40.364Z,4.00
2022-07-29T02:13:44.842Z,3.90
2022-07-29T02:16:50.941Z,3.65
2022-07-29T02:19:57.865Z,3.50
2022-07-29T02:23:03.314Z,3.53
2022-07-29T02:26:07.836Z,3.60
2022-07-29T02:29:13.379Z,3.83
2022-07-29T02:32:18.241Z,4.32
2022-07-29T02:35:22.907Z,3.83
2022-07-29T02:38:46.660Z,4.47
2022-07-29T02:41:59.692Z,3.80
2022-07-29T02:45:03.005Z,4.30
2022-07-29T02:48:14.700Z,4.20
2022-07-29T02:51:43.408Z,4.00
2022-07-29T02:54:59.120Z,4.18
2022-07-29T02:58:29.515Z,4.43
2022-07-29T03:01:36.072Z,4.05
2022-07-29T03:04:43.148Z,4.18
2022-07-29T03:07:57.075Z,4.30
2022-07-29T03:11:01.820Z,4.22
2022-07-29T03:14:06.781Z,4.50
2022-07-29T03:17:11.411Z,4.20
2022-07-29T03:20:15.036Z,4.72
2022-07-29T03:23:24.764Z,4.55
2022-07-29T03:26:28.372Z,4.88
2022-07-29T03:29:33.193Z,4.70
2022-07-29T03:32:37.407Z,4.13
2022-07-29T03:35:41.795Z,4.43
2022-07-29T03:38:46.817Z,4.43
2022-07-29T03:41:54.190Z,4.30
2022-07-29T03:44:58.553Z,4.70
2022-07-29T03:48:08.080Z,4.70
2022-07-29T03:51:11.330Z,4.95
2022-07-29T03:54:15.025Z,4.75
2022-07-29T03:57:24.550Z,4.75
2022-07-29T04:00:29.526Z,4.80
2022-07-29T04:03:33.070Z,4.78
2022-07-29T04:06:44.281Z,4.65
2022-07-29T04:09:47.563Z,5.30
2022-07-29T04:12:51.094Z,5.00
2022-07-29T04:15:54.308Z,5.17
2022-07-29T04:18:57.692Z,5.35
2022-07-29T04:22:01.655Z,5.47
2022-07-29T04:25:05.204Z,5.88
2022-07-29T04:28:09.429Z,5.53
2022-07-29T04:31:13.876Z,5.23
2022-07-29T04:34:17.396Z,5.32
2022-07-29T04:37:20.876Z,5.57
2022-07-29T04:40:24.141Z,5.50
2022-07-29T04:43:27.435Z,6.50
2022-07-29T04:46:31.073Z,5.90
2022-07-29T04:49:34.322Z,6.00
2022-07-29T04:52:38.162Z,5.97
2022-07-29T04:55:41.332Z,5.70
2022-07-29T04:58:44.528Z,5.53
2022-07-29T05:01:47.821Z,5.83
2022-07-29T05:04:51.111Z,6.22
2022-07-29T05:07:54.506Z,5.78
2022-07-29T05:10:57.743Z,6.25
2022-07-29T05:14:00.941Z,6.18
2022-07-29T05:17:04.938Z,5.63
2022-07-29T05:20:08.770Z,6.30
2022-07-29T05:23:13.819Z,6.57
2022-07-29T05:26:17.095Z,7.07
2022-07-29T05:29:43.377Z,6.40
2022-07-29T05:32:44.038Z,6.93
2022-07-29T05:35:47.382Z,6.93
2022-07-29T05:38:51.868Z,6.38
2022-07-29T05:41:55.011Z,7.00
2022-07-29T05:44:58.346Z,6.82
2022-07-29T05:48:01.479Z,7.77
2022-07-29T05:51:05.941Z,6.80
2022-07-29T05:54:09.093Z,5.43
2022-07-29T05:57:19.934Z,5.78
2022-07-29T06:00:23.617Z,5.70
2022-07-29T06:03:27.696Z,5.90
2022-07-29T06:06:30.872Z,6.28
2022-07-29T06:09:36.307Z,6.80
2022-07-29T06:12:39.644Z,7.15
2022-07-29T06:15:43.325Z,6.95
2022-07-29T06:18:46.595Z,6.67
2022-07-29T06:21:50.175Z,6.90
2022-07-29T06:24:53.485Z,7.00
2022-07-29T06:27:57.015Z,7.68
2022-07-29T06:31:00.762Z,5.28
2022-07-29T06:34:04.457Z,7.27
2022-07-29T06:37:11.233Z,6.35
2022-07-29T06:40:38.199Z,6.57
2022-07-29T06:43:52.599Z,4.35
2022-07-29T06:46:58.041Z,5.22
2022-07-29T06:50:01.234Z,4.00
2022-07-29T06:53:04.879Z,5.70
2022-07-29T06:56:13.657Z,3.65
2022-07-29T06:59:16.941Z,3.95
2022-07-29T07:02:20.143Z,5.20
2022-07-29T07:05:24.142Z,5.40
2022-07-29T07:08:27.571Z,3.78
2022-07-29T07:11:30.958Z,4.88
2022-07-29T07:14:34.349Z,5.53
2022-07-29T07:17:38.674Z,6.35
2022-07-29T07:20:42.184Z,6.13
2022-07-29T07:23:45.417Z,6.10
2022-07-29T07:26:48.925Z,6.35
2022-07-29T07:29:52.423Z,4.82
2022-07-29T07:32:56.297Z,4.18
2022-07-29T07:35:59.725Z,5.27
2022-07-29T07:39:03.438Z,5.15
2022-07-29T07:42:07.128Z,4.78
2022-07-29T07:45:16.128Z,6.00
2022-07-29T07:48:19.883Z,5.60
2022-07-29T07:51:23.058Z,6.57
2022-07-29T07:54:26.271Z,6.00
2022-07-29T07:57:29.408Z,5.00
2022-07-29T08:00:33.592Z,4.20
2022-07-29T08:03:37.603Z,4.30
2022-07-29T08:06:40.856Z,5.83
2022-07-29T08:09:44.121Z,3.80
2022-07-29T08:12:47.373Z,4.57
2022-07-29T08:16:01.177Z,5.45
2022-07-29T08:19:04.868Z,4.30
2022-07-29T08:22:08.088Z,5.80
2022-07-29T08:25:11.377Z,6.68
2022-07-29T08:28:15.314Z,5.88
2022-07-29T08:31:19.249Z,5.63
2022-07-29T08:34:27.855Z,4.50
2022-07-29T08:37:31.587Z,3.83
2022-07-29T08:40:34.865Z,5.35
2022-07-29T08:43:39.217Z,4.10
2022-07-29T08:46:42.554Z,4.72
2022-07-29T08:49:48.059Z,4.97
2022-07-29T08:52:53.564Z,3.90
2022-07-29T08:56:00.508Z,4.45
2022-07-29T08:59:09.393Z,4.63
2022-07-29T09:02:21.684Z,4.38
2022-07-29T09:05:26.899Z,3.85
2022-07-29T09:08:31.650Z,3.90
2022-07-29T09:11:35.449Z,3.70
2022-07-29T09:14:40.146Z,4.22
2022-07-29T09:17:50.089Z,4.10
2022-07-29T09:21:12.899Z,4.00
2022-07-29T09:24:16.832Z,4.60
2022-07-29T09:27:23.756Z,5.20
2022-07-29T09:30:31.692Z,4.95
2022-07-29T09:33:36.683Z,5.15
2022-07-29T09:36:49.086Z,4.47
2022-07-29T09:39:54.835Z,4.57
2022-07-29T09:42:58.326Z,3.85
2022-07-29T09:46:14.917Z,4.00
2022-07-29T09:49:18.485Z,4.57
2022-07-29T09:52:22.274Z,4.85
2022-07-29T09:55:25.523Z,6.20
2022-07-29T09:58:29.138Z,4.85
2022-07-29T10:01:32.297Z,5.03
2022-07-29T10:04:54.093Z,4.97
2022-07-29T10:08:00.553Z,4.55
2022-07-29T10:11:19.899Z,3.30
2022-07-29T10:14:23.381Z,3.72
2022-07-29T10:17:26.624Z,4.47
2022-07-29T10:20:30.208Z,4.18
2022-07-29T10:23:46.126Z,4.30
2022-07-29T10:26:51.114Z,3.27
2022-07-29T10:29:55.587Z,3.50
2022-07-29T10:33:10.647Z,4.57
2022-07-29T10:36:52.307Z,3.35
2022-07-29T10:40:01.630Z,4.15
2022-07-29T10:43:46.751Z,4.10
2022-07-29T10:46:55.094Z,5.03
2022-07-29T10:50:03.770Z,4.50
2022-07-29T10:53:09.860Z,3.83
2022-07-29T10:56:28.916Z,3.90
2022-07-29T10:59:36.461Z,4.37
2022-07-29T11:02:44.854Z,4.85
2022-07-29T11:05:59.878Z,4.25
2022-07-29T11:09:35.050Z,5.28
2022-07-29T11:12:44.116Z,4.25
2022-07-29T11:15:58.371Z,3.30
2022-07-29T11:19:14.227Z,3.40
2022-07-29T11:22:34.621Z,3.95
2022-07-29T11:25:43.024Z,3.80
2022-07-29T11:29:19.304Z,3.30
2022-07-29T11:32:24.932Z,3.30
2022-07-29T11:35:38.075Z,4.82
2022-07-29T11:38:43.481Z,4.88
2022-07-29T11:41:46.676Z,5.30
2022-07-29T11:44:59.851Z,4.75
2022-07-29T11:48:29.607Z,4.70
2022-07-29T11:51:36.290Z,5.10
2022-07-29T11:54:58.368Z,5.22
2022-07-29T11:58:04.589Z,5.20
2022-07-29T12:01:08.884Z,4.13
2022-07-29T12:04:12.097Z,5.10
2022-07-29T12:07:17.300Z,3.70
2022-07-29T12:10:30.038Z,4.93
2022-07-29T12:13:40.871Z,5.90
2022-07-29T12:16:44.115Z,5.80
2022-07-29T12:19:47.269Z,5.70
2022-07-29T12:22:55.481Z,4.70
2022-07-29T12:26:00.077Z,4.72
2022-07-29T12:29:03.832Z,3.40
2022-07-29T12:32:14.233Z,3.70
2022-07-29T12:35:20.494Z,3.73
2022-07-29T12:38:24.017Z,4.40
2022-07-29T12:41:29.994Z,5.55
2022-07-29T12:45:06.777Z,5.57
2022-07-29T12:48:11.369Z,6.18
2022-07-29T12:51:15.864Z,5.67
2022-07-29T12:54:19.038Z,5.88
2022-07-29T12:57:23.115Z,6.60
2022-07-29T13:00:26.550Z,6.50
2022-07-29T13:03:30.317Z,6.00
2022-07-29T13:06:45.716Z,6.20
2022-07-29T13:09:49.549Z,6.05
2022-07-29T13:13:09.052Z,4.97
2022-07-29T13:16:12.307Z,6.28
2022-07-29T13:19:15.532Z,5.90
2022-07-29T13:22:21.204Z,6.20
2022-07-29T13:25:32.756Z,6.03
2022-07-29T13:28:36.049Z,5.85
2022-07-29T13:31:40.737Z,5.43
2022-07-29T13:34:44.017Z,4.40
2022-07-29T13:37:48.102Z,5.73
2022-07-29T13:40:51.737Z,5.15
2022-07-29T13:43:54.934Z,4.93
2022-07-29T13:47:02.870Z,4.40
2022-07-29T13:50:08.584Z,4.20
2022-07-29T13:53:17.993Z,4.77
2022-07-29T13:56:21.405Z,6.15
2022-07-29T13:59:24.565Z,5.82
2022-07-29T14:02:27.863Z,4.63
2022-07-29T14:05:31.121Z,4.65
2022-07-29T14:08:37.312Z,4.30
2022-07-29T14:11:40.740Z,4.88
2022-07-29T14:14:43.994Z,5.32
2022-07-29T14:17:50.594Z,4.60
2022-07-29T14:20:53.897Z,4.05
2022-07-29T14:24:02.870Z,4.90
2022-07-29T14:27:19.503Z,4.63
2022-07-29T14:30:41.493Z,6.25
2022-07-29T14:33:46.294Z,5.13
2022-07-29T14:36:52.596Z,5.35
2022-07-29T14:40:00.376Z,6.27
2022-07-29T14:43:03.980Z,5.60
2022-07-29T14:46:08.596Z,5.05
2022-07-29T14:49:12.506Z,5.38
2022-07-29T14:52:15.818Z,5.13
2022-07-29T14:55:19.747Z,5.53
2022-07-29T14:58:23.717Z,5.07
2022-07-29T15:01:27.054Z,5.28
2022-07-29T15:04:31.132Z,5.55
2022-07-29T15:07:34.417Z,5.40
2022-07-29T15:10:37.671Z,4.83
2022-07-29T15:13:40.888Z,5.60
2022-07-29T15:16:48.115Z,5.00
2022-07-29T15:19:51.696Z,5.65
2022-07-29T15:22:56.542Z,5.80
2022-07-29T15:25:59.719Z,5.43
2022-07-29T15:29:03.841Z,6.00
2022-07-29T15:32:07.634Z,5.60
2022-07-29T15:35:14.240Z,6.00
2022-07-29T15:38:18.853Z,6.03
2022-07-29T15:41:22.945Z,6.00
2022-07-29T15:44:26.489Z,6.28
2022-07-29T15:47:29.926Z,5.90
2022-07-29T15:50:33.387Z,6.78
2022-07-29T15:53:36.621Z,6.90
2022-07-29T15:56:39.941Z,6.53
2022-07-29T15:59:43.217Z,7.10
2022-07-29T16:02:46.372Z,6.75
2022-07-29T16:05:49.930Z,7.18
2022-07-29T16:08:55.803Z,7.43
2022-07-29T16:11:59.448Z,7.00
2022-07-29T16:15:07.594Z,7.45
2022-07-29T16:18:14.072Z,7.00
2022-07-29T16:21:17.268Z,7.15
2022-07-29T16:24:20.523Z,6.78
2022-07-29T16:27:31.387Z,6.93
2022-07-29T16:30:40.624Z,7.50
2022-07-29T16:33:54.205Z,7.22
2022-07-29T16:36:59.238Z,8.20
2022-07-29T16:40:03.900Z,7.45
2022-07-29T16:43:07.458Z,7.30
2022-07-29T16:46:15.623Z,7.25
2022-07-29T16:49:22.358Z,7.53
2022-07-29T16:52:25.720Z,6.80
2022-07-29T16:55:29.391Z,7.22
2022-07-29T16:58:33.118Z,6.77
2022-07-29T17:01:36.356Z,6.60
2022-07-29T17:04:39.561Z,6.03
2022-07-29T17:07:43.908Z,6.50
2022-07-29T17:10:47.340Z,6.65
2022-07-29T17:13:50.903Z,5.97
2022-07-29T17:17:02.641Z,5.60
2022-07-29T17:20:08.477Z,5.80
2022-07-29T17:23:11.681Z,5.53
2022-07-29T17:26:15.427Z,5.00
2022-07-29T17:29:18.877Z,5.60
2022-07-29T17:32:22.267Z,5.85
2022-07-29T17:35:44.169Z,5.40
2022-07-29T17:38:47.381Z,5.35
2022-07-29T17:41:50.779Z,5.40
2022-07-29T17:44:53.996Z,5.70
2022-07-29T17:47:57.273Z,5.80
2022-07-29T17:51:00.738Z,5.70
2022-07-29T17:54:04.336Z,5.53
2022-07-29T17:57:08.140Z,5.28
2022-07-29T18:00:11.768Z,6.03
2022-07-29T18:03:15.701Z,5.53
2022-07-29T18:06:18.986Z,5.40
2022-07-29T18:09:22.318Z,6.00
2022-07-29T18:12:25.581Z,5.00
2022-07-29T18:15:28.704Z,4.70
2022-07-29T18:18:31.946Z,5.00
2022-07-29T18:21:38.164Z,5.30
2022-07-29T18:24:54.809Z,4.75
2022-07-29T18:28:00.515Z,5.20
2022-07-29T18:31:04.285Z,5.20
2022-07-29T18:34:07.587Z,4.85
2022-07-29T18:37:10.797Z,6.70
2022-07-29T18:40:14.284Z,5.20
2022-07-29T18:43:17.593Z,4.75
2022-07-29T18:46:20.847Z,4.90
2022-07-29T18:49:24.998Z,5.10
2022-07-29T18:52:28.742Z,5.10
2022-07-29T18:55:31.997Z,4.75
2022-07-29T18:58:37.051Z,5.10
2022-07-29T19:01:40.407Z,5.13
2022-07-29T19:04:43.961Z,5.32
2022-07-29T19:07:47.100Z,5.10
2022-07-29T19:10:50.453Z,4.90
2022-07-29T19:13:53.789Z,5.03
2022-07-29T19:16:57.188Z,5.27
2022-07-29T19:20:00.942Z,5.32
2022-07-29T19:23:04.269Z,5.68
2022-07-29T19:26:07.489Z,5.28
2022-07-29T19:29:11.675Z,5.47
2022-07-29T19:32:24.674Z,6.27
2022-07-29T19:35:31.001Z,5.65
2022-07-29T19:38:34.441Z,6.30
2022-07-29T19:41:38.072Z,5.25
2022-07-29T19:44:41.500Z,6.10
2022-07-29T19:47:44.927Z,5.90
2022-07-29T19:50:48.252Z,6.25
2022-07-29T19:53:52.548Z,6.60
2022-07-29T19:56:55.978Z,6.30
2022-07-29T19:59:59.333Z,6.57
2022-07-29T20:03:04.674Z,6.17
2022-07-29T20:06:08.468Z,6.40
2022-07-29T20:09:17.713Z,6.18
2022-07-29T20:12:24.317Z,5.95
2022-07-29T20:15:27.603Z,6.25
2022-07-29T20:18:30.808Z,5.97
2022-07-29T20:21:36.486Z,6.22
2022-07-29T20:24:39.871Z,6.43
2022-07-29T20:27:44.452Z,6.30
2022-07-29T20:30:47.701Z,6.07
2022-07-29T20:33:51.529Z,6.20
2022-07-29T20:36:54.700Z,5.80
2022-07-29T20:39:58.076Z,6.25
2022-07-29T20:43:01.313Z,5.82
2022-07-29T20:46:04.850Z,6.20
2022-07-29T20:49:10.733Z,6.20
2022-07-29T20:52:14.096Z,5.50
2022-07-29T20:55:17.364Z,5.78
2022-07-29T20:58:20.966Z,5.90
2022-07-29T21:01:26.663Z,6.10
2022-07-29T21:04:30.909Z,5.47
2022-07-29T21:07:36.347Z,6.10
2022-07-29T21:10:39.763Z,5.85
2022-07-29T21:13:45.301Z,5.90
2022-07-29T21:16:48.560Z,6.20
2022-07-29T21:19:53.291Z,6.07
2022-07-29T21:22:57.050Z,5.70
2022-07-29T21:26:00.229Z,5.90
2022-07-29T21:29:03.583Z,5.47
2022-07-29T21:32:06.884Z,5.90
2022-07-29T21:35:22.308Z,5.80
2022-07-29T21:38:35.619Z,5.65
2022-07-29T21:41:38.890Z,5.45
2022-07-29T21:44:42.110Z,5.85
2022-07-29T21:47:45.316Z,5.63
2022-07-29T21:50:49.861Z,5.53
2022-07-29T21:53:53.332Z,5.40
2022-07-29T21:56:56.661Z,5.75
2022-07-29T22:00:03.179Z,5.22
2022-07-29T22:03:16.326Z,5.40
2022-07-29T22:06:19.551Z,5.67
2022-07-29T22:09:22.778Z,5.95
2022-07-29T22:12:25.976Z,5.97
2022-07-29T22:15:30.428Z,5.45
2022-07-29T22:18:33.715Z,5.95
2022-07-29T22:21:36.902Z,5.83
2022-07-29T22:24:40.324Z,5.70
2022-07-29T22:27:43.473Z,5.40
2022-07-29T22:30:46.666Z,5.70
2022-07-29T22:33:53.129Z,5.82
2022-07-29T22:36:56.605Z,5.80
2022-07-29T22:39:59.820Z,5.18
2022-07-29T22:43:03.048Z,5.57
2022-07-29T22:46:10.109Z,5.60
2022-07-29T22:49:15.453Z,5.03
2022-07-29T22:52:18.677Z,5.40
2022-07-29T22:55:21.923Z,5.38
2022-07-29T22:58:25.136Z,5.32
2022-07-29T23:01:37.101Z,5.47
2022-07-29T23:04:41.213Z,6.05
2022-07-29T23:07:44.369Z,5.40
2022-07-29T23:10:47.824Z,4.90
2022-07-29T23:13:50.956Z,5.50
2022-07-29T23:16:54.142Z,5.18
2022-07-29T23:19:57.393Z,5.57
2022-07-29T23:23:00.644Z,5.20
2022-07-29T23:26:04.006Z,4.95
2022-07-29T23:29:07.153Z,5.25
2022-07-29T23:32:10.354Z,5.55
2022-07-29T23:35:13.476Z,5.03
2022-07-29T23:38:16.625Z,5.70
2022-07-29T23:41:21.409Z,5.45
2022-07-29T23:44:27.152Z,5.32
2022-07-29T23:47:30.397Z,5.47
2022-07-29T23:50:33.598Z,5.38
2022-07-29T23:53:53.683Z,5.53
2022-07-29T23:56:58.069Z,5.85
